46ME weather

Calais Regional Hospital Heliport
Calais, Maine, United States

Public forecast

Using degrees Fahrenheit for public forecast. Weather courtesy of forecast.io.

METAR (pilot weather report)

Closest report is Fredericton Airport, 51.7 nm (95.7 km) NE. Retrieved 2019/08/17 17:00 UTC (13 minutes ago):

CYFC 171700Z AUTO 16004KT 120V210 9SM SCT023 OVC028 21/18 A3010 RMK SLP193 DENSITY ALT 500FT

TAF (pilot weather forecast)

Closest forecast is Fredericton Airport, 51.7 nm (95.7 km) NE. Retrieved 2019/08/17 12:42 UTC (5 hours ago):

TAF CYFC 171139Z 1712/1724 17005KT P6SM SCT005 OVC070 TEMPO 1712/1715 5SM -SHRA BR BKN005 BKN070 FM171500 18008KT P6SM BKN070 BECMG 1718/1720 18012G22KT BECMG 1722/1724 18008KT RMK FCST BASED ON AUTO OBS. NXT FCST BY 171800Z